createdAt,value
2022-08-31T00:00:27.072Z,67.52
2022-08-31T00:01:27.034Z,68.69
2022-08-31T00:02:27.047Z,69.12
2022-08-31T00:03:26.974Z,69.32
2022-08-31T00:04:26.992Z,69.42
2022-08-31T00:05:26.890Z,69.32
2022-08-31T00:06:26.853Z,69.42
2022-08-31T00:07:26.816Z,68.82
2022-08-31T00:08:26.782Z,68.52
2022-08-31T00:09:26.755Z,68.65
2022-08-31T00:10:31.963Z,68.35
2022-08-31T00:11:26.674Z,68.42
2022-08-31T00:12:26.632Z,68.52
2022-08-31T00:13:26.597Z,69.22
2022-08-31T00:14:26.559Z,69.35
2022-08-31T00:15:26.535Z,68.02
2022-08-31T00:16:26.538Z,68.52
2022-08-31T00:17:26.450Z,68.82
2022-08-31T00:18:26.418Z,69.92
2022-08-31T00:19:26.377Z,69.26
2022-08-31T00:20:33.955Z,69.56
2022-08-31T00:21:26.314Z,67.75
2022-08-31T00:22:26.268Z,69.42
2022-08-31T00:23:26.234Z,69.62
2022-08-31T00:24:26.197Z,70.36
2022-08-31T00:25:26.158Z,70.96
2022-08-31T00:26:26.121Z,70.56
2022-08-31T00:27:26.098Z,70.86
2022-08-31T00:28:26.050Z,71.56
2022-08-31T00:29:26.012Z,70.79
2022-08-31T00:30:25.977Z,71.40
2022-08-31T00:31:25.988Z,71.00
2022-08-31T00:32:28.835Z,71.30
2022-08-31T00:33:25.882Z,72.00
2022-08-31T00:34:25.828Z,71.90
2022-08-31T00:35:25.794Z,71.63
2022-08-31T00:36:25.756Z,71.30
2022-08-31T00:37:25.719Z,70.73
2022-08-31T00:38:25.684Z,70.32
2022-08-31T00:39:25.658Z,70.89
2022-08-31T00:40:25.653Z,70.53
2022-08-31T00:41:25.577Z,70.32
2022-08-31T00:42:25.535Z,70.53
2022-08-31T00:43:25.502Z,69.49
2022-08-31T00:44:25.463Z,69.89
2022-08-31T00:45:25.474Z,70.29
2022-08-31T00:46:25.389Z,68.88
2022-08-31T00:47:25.353Z,68.68
2022-08-31T00:48:25.330Z,68.99
2022-08-31T00:49:25.279Z,68.59
2022-08-31T00:50:25.241Z,69.59
2022-08-31T00:51:25.206Z,68.99
2022-08-31T00:52:25.171Z,69.69
2022-08-31T00:53:25.131Z,69.29
2022-08-31T00:54:25.106Z,68.49
2022-08-31T00:55:25.067Z,68.99
2022-08-31T00:56:25.020Z,69.79
2022-08-31T00:57:34.605Z,69.09
2022-08-31T00:58:24.950Z,68.99
2022-08-31T00:59:24.912Z,68.68
2022-08-31T01:00:24.963Z,68.68
2022-08-31T01:01:24.940Z,68.79
2022-08-31T01:02:24.883Z,69.79
2022-08-31T01:03:24.766Z,69.49
2022-08-31T01:04:24.751Z,69.32
2022-08-31T01:05:24.695Z,69.99
2022-08-31T01:06:24.652Z,69.19
2022-08-31T01:07:24.618Z,69.79
2022-08-31T01:08:24.581Z,69.49
2022-08-31T01:09:24.544Z,69.32
2022-08-31T01:10:24.517Z,70.03
2022-08-31T01:11:24.471Z,69.79
2022-08-31T01:12:24.435Z,70.03
2022-08-31T01:13:24.394Z,69.92
2022-08-31T01:14:24.357Z,70.63
2022-08-31T01:15:24.334Z,70.53
2022-08-31T01:16:24.327Z,69.92
2022-08-31T01:17:24.250Z,70.63
2022-08-31T01:18:24.213Z,70.43
2022-08-31T01:19:24.177Z,70.26
2022-08-31T01:20:24.135Z,70.73
2022-08-31T01:21:24.114Z,71.03
2022-08-31T01:22:24.063Z,70.53
2022-08-31T01:23:24.049Z,71.33
2022-08-31T01:24:23.988Z,71.03
2022-08-31T01:25:23.949Z,71.33
2022-08-31T01:26:23.917Z,71.43
2022-08-31T01:27:23.880Z,71.13
2022-08-31T01:28:23.841Z,71.73
2022-08-31T01:29:23.815Z,71.87
2022-08-31T01:30:23.771Z,72.57
2022-08-31T01:31:23.790Z,72.07
2022-08-31T01:32:23.692Z,72.44
2022-08-31T01:33:23.658Z,72.67
2022-08-31T01:34:23.621Z,73.07
2022-08-31T01:35:23.591Z,72.07
2022-08-31T01:36:23.543Z,72.17
2022-08-31T01:37:29.488Z,72.41
2022-08-31T01:38:23.472Z,72.41
2022-08-31T01:39:23.433Z,73.51
2022-08-31T01:40:23.427Z,72.91
2022-08-31T01:41:23.367Z,73.07
2022-08-31T01:42:23.320Z,73.07
2022-08-31T01:43:23.282Z,72.91
2022-08-31T01:44:23.245Z,72.81
2022-08-31T01:45:23.212Z,73.51
2022-08-31T01:46:23.268Z,73.41
2022-08-31T01:47:23.147Z,73.31
2022-08-31T01:48:23.107Z,74.11
2022-08-31T01:49:23.060Z,73.31
2022-08-31T01:50:23.056Z,74.01
2022-08-31T01:51:22.991Z,74.21
2022-08-31T01:52:22.949Z,74.32
2022-08-31T01:53:22.910Z,74.65
2022-08-31T01:54:22.886Z,74.95
2022-08-31T01:55:22.836Z,74.95
2022-08-31T01:56:22.800Z,74.75
2022-08-31T01:57:33.563Z,75.32
2022-08-31T01:58:22.724Z,75.46
2022-08-31T01:59:22.699Z,75.56
2022-08-31T02:00:22.651Z,75.15
2022-08-31T02:01:31.197Z,75.56
2022-08-31T02:02:22.644Z,75.86
2022-08-31T02:03:22.539Z,75.46
2022-08-31T02:04:22.510Z,75.96
2022-08-31T02:05:22.464Z,75.59
2022-08-31T02:06:22.427Z,75.76
2022-08-31T02:07:22.389Z,76.06
2022-08-31T02:08:22.351Z,76.20
2022-08-31T02:09:22.315Z,76.10
2022-08-31T02:10:22.291Z,76.67
2022-08-31T02:11:22.244Z,76.60
2022-08-31T02:12:22.203Z,76.70
2022-08-31T02:13:22.165Z,76.70
2022-08-31T02:14:22.127Z,76.80
2022-08-31T02:15:22.091Z,76.30
2022-08-31T02:16:22.114Z,76.60
2022-08-31T02:17:22.017Z,76.40
2022-08-31T02:18:21.977Z,77.40
2022-08-31T02:19:21.943Z,77.11
2022-08-31T02:20:21.930Z,78.01
2022-08-31T02:21:21.867Z,77.11
2022-08-31T02:22:21.845Z,78.11
2022-08-31T02:23:21.791Z,77.11
2022-08-31T02:24:21.753Z,77.31
2022-08-31T02:25:21.725Z,77.70
2022-08-31T02:26:21.693Z,77.91
2022-08-31T02:27:21.645Z,77.81
2022-08-31T02:28:21.604Z,78.01
2022-08-31T02:29:21.567Z,78.91
2022-08-31T02:30:21.528Z,78.41
2022-08-31T02:31:21.541Z,77.50
2022-08-31T02:32:21.464Z,78.55
2022-08-31T02:33:21.418Z,78.45
2022-08-31T02:34:21.376Z,78.41
2022-08-31T02:35:21.352Z,78.55
2022-08-31T02:36:21.305Z,78.81
2022-08-31T02:37:21.268Z,79.16
2022-08-31T02:38:21.228Z,79.16
2022-08-31T02:39:21.194Z,78.96
2022-08-31T02:40:21.227Z,78.91
2022-08-31T02:41:21.127Z,78.96
2022-08-31T02:42:21.078Z,79.22
2022-08-31T02:43:24.866Z,79.25
2022-08-31T02:44:21.004Z,79.22
2022-08-31T02:45:20.969Z,79.22
2022-08-31T02:46:21.020Z,78.81
2022-08-31T02:47:20.901Z,79.11
2022-08-31T02:48:20.854Z,79.52
2022-08-31T02:49:20.820Z,78.91
2022-08-31T02:50:20.791Z,79.11
2022-08-31T02:51:20.741Z,78.85
2022-08-31T02:52:20.703Z,79.32
2022-08-31T02:53:20.671Z,79.02
2022-08-31T02:54:20.651Z,79.11
2022-08-31T02:55:22.100Z,79.11
2022-08-31T02:56:20.553Z,79.52
2022-08-31T02:57:20.518Z,79.05
2022-08-31T02:58:23.991Z,79.52
2022-08-31T02:59:20.441Z,78.71
2022-08-31T03:00:20.415Z,79.36
2022-08-31T03:01:20.464Z,79.92
2022-08-31T03:02:20.365Z,79.96
2022-08-31T03:03:20.489Z,79.66
2022-08-31T03:04:20.256Z,79.76
2022-08-31T03:05:20.217Z,79.86
2022-08-31T03:06:20.193Z,79.86
2022-08-31T03:07:20.142Z,80.26
2022-08-31T03:08:20.108Z,80.36
2022-08-31T03:09:20.071Z,80.36
2022-08-31T03:10:20.028Z,80.06
2022-08-31T03:11:19.993Z,80.36
2022-08-31T03:12:19.964Z,80.57
2022-08-31T03:13:20.148Z,80.36
2022-08-31T03:14:19.878Z,80.57
2022-08-31T03:15:19.843Z,80.06
2022-08-31T03:16:19.852Z,80.90
2022-08-31T03:17:19.768Z,80.06
2022-08-31T03:18:19.738Z,80.87
2022-08-31T03:19:19.766Z,80.26
2022-08-31T03:20:19.667Z,81.41
2022-08-31T03:21:19.619Z,81.37
2022-08-31T03:22:19.577Z,81.10
2022-08-31T03:23:19.775Z,81.01
2022-08-31T03:24:19.504Z,80.80
2022-08-31T03:25:19.467Z,81.41
2022-08-31T03:26:19.438Z,81.41
2022-08-31T03:27:19.393Z,81.41
2022-08-31T03:28:19.354Z,81.01
2022-08-31T03:29:19.320Z,81.41
2022-08-31T03:30:19.295Z,80.60
2022-08-31T03:31:19.303Z,81.01
2022-08-31T03:32:19.206Z,81.61
2022-08-31T03:33:19.318Z,81.41
2022-08-31T03:34:19.130Z,81.21
2022-08-31T03:35:19.107Z,80.70
2022-08-31T03:36:19.053Z,81.21
2022-08-31T03:37:19.016Z,81.21
2022-08-31T03:38:18.990Z,81.21
2022-08-31T03:39:18.950Z,81.91
2022-08-31T03:40:18.985Z,81.71
2022-08-31T03:41:18.867Z,81.10
2022-08-31T03:42:18.832Z,81.21
2022-08-31T03:43:18.935Z,81.71
2022-08-31T03:44:18.753Z,81.81
2022-08-31T03:45:18.715Z,81.81
2022-08-31T03:46:18.749Z,81.51
2022-08-31T03:47:18.641Z,81.71
2022-08-31T03:48:18.602Z,81.61
2022-08-31T03:49:18.580Z,81.51
2022-08-31T03:50:18.528Z,82.25
2022-08-31T03:51:18.491Z,82.51
2022-08-31T03:52:18.453Z,81.91
2022-08-31T03:53:22.707Z,83.02
2022-08-31T03:54:18.379Z,82.35
2022-08-31T03:55:18.393Z,83.02
2022-08-31T03:56:18.301Z,82.15
2022-08-31T03:57:18.267Z,82.45
2022-08-31T03:58:18.225Z,82.45
2022-08-31T03:59:18.190Z,82.90
2022-08-31T04:00:18.150Z,83.97
2022-08-31T04:01:18.134Z,83.97
2022-08-31T04:02:18.096Z,83.76
2022-08-31T04:03:18.131Z,83.56
2022-08-31T04:04:18.002Z,83.50
2022-08-31T04:05:17.970Z,84.21
2022-08-31T04:06:17.925Z,83.87
2022-08-31T04:07:17.902Z,83.87
2022-08-31T04:08:17.879Z,83.30
2022-08-31T04:09:17.817Z,83.60
2022-08-31T04:10:17.776Z,83.60
2022-08-31T04:11:17.738Z,83.60
2022-08-31T04:12:17.699Z,83.80
2022-08-31T04:13:17.842Z,83.50
2022-08-31T04:14:17.636Z,83.70
2022-08-31T04:15:17.588Z,83.60
2022-08-31T04:16:17.616Z,84.51
2022-08-31T04:17:17.512Z,84.41
2022-08-31T04:18:17.472Z,84.61
2022-08-31T04:19:17.446Z,84.51
2022-08-31T04:20:17.397Z,84.11
2022-08-31T04:21:17.375Z,84.45
2022-08-31T04:22:17.324Z,84.85
2022-08-31T04:23:17.396Z,85.02
2022-08-31T04:24:17.257Z,85.25
2022-08-31T04:25:18.212Z,85.66
2022-08-31T04:26:17.172Z,85.16
2022-08-31T04:27:17.135Z,85.66
2022-08-31T04:28:17.097Z,84.95
2022-08-31T04:29:17.060Z,84.85
2022-08-31T04:30:17.033Z,85.16
2022-08-31T04:31:17.005Z,85.36
2022-08-31T04:32:16.945Z,85.56
2022-08-31T04:33:16.905Z,85.66
2022-08-31T04:34:16.869Z,85.25
2022-08-31T04:35:16.832Z,85.76
2022-08-31T04:36:16.808Z,85.46
2022-08-31T04:37:16.754Z,85.25
2022-08-31T04:38:16.719Z,85.66
2022-08-31T04:39:16.708Z,85.46
2022-08-31T04:40:16.682Z,85.16
2022-08-31T04:41:16.613Z,85.66
2022-08-31T04:42:16.576Z,85.25
2022-08-31T04:43:16.528Z,85.76
2022-08-31T04:44:19.985Z,85.16
2022-08-31T04:45:16.452Z,85.56
2022-08-31T04:46:16.515Z,86.16
2022-08-31T04:47:16.376Z,85.76
2022-08-31T04:48:16.350Z,84.85
2022-08-31T04:49:16.300Z,86.16
2022-08-31T04:50:16.260Z,85.96
2022-08-31T04:51:16.228Z,86.07
2022-08-31T04:52:16.192Z,85.80
2022-08-31T04:53:16.148Z,85.96
2022-08-31T04:54:16.125Z,86.47
2022-08-31T04:55:16.078Z,86.57
2022-08-31T04:56:16.038Z,86.16
2022-08-31T04:57:15.995Z,85.96
2022-08-31T04:58:15.960Z,86.30
2022-08-31T04:59:15.923Z,86.47
2022-08-31T05:00:18.011Z,86.71
2022-08-31T05:01:15.882Z,86.07
2022-08-31T05:02:15.834Z,86.36
2022-08-31T05:03:25.057Z,86.87
2022-08-31T05:04:15.731Z,86.47
2022-08-31T05:05:15.781Z,86.07
2022-08-31T05:06:15.664Z,86.16
2022-08-31T05:07:15.629Z,85.76
2022-08-31T05:08:15.582Z,85.86
2022-08-31T05:09:15.541Z,85.96
2022-08-31T05:10:15.505Z,86.87
2022-08-31T05:11:16.098Z,86.16
2022-08-31T05:12:15.463Z,85.76
2022-08-31T05:13:15.390Z,86.07
2022-08-31T05:14:15.354Z,86.27
2022-08-31T05:15:15.317Z,86.77
2022-08-31T05:16:15.331Z,85.96
2022-08-31T05:17:15.374Z,86.07
2022-08-31T05:18:15.234Z,86.36
2022-08-31T05:19:15.188Z,86.57
2022-08-31T05:20:15.145Z,86.57
2022-08-31T05:21:15.086Z,86.16
2022-08-31T05:22:15.049Z,86.36
2022-08-31T05:23:18.167Z,86.27
2022-08-31T05:24:15.655Z,86.36
2022-08-31T05:25:14.954Z,86.16
2022-08-31T05:26:14.898Z,86.07
2022-08-31T05:27:14.863Z,86.36
2022-08-31T05:28:14.823Z,86.67
2022-08-31T05:29:14.784Z,85.96
2022-08-31T05:30:14.748Z,86.16
2022-08-31T05:31:14.771Z,86.27
2022-08-31T05:32:14.672Z,86.43
2022-08-31T05:33:14.666Z,85.82
2022-08-31T05:34:14.597Z,85.92
2022-08-31T05:35:14.559Z,85.96
2022-08-31T05:36:14.523Z,86.22
2022-08-31T05:37:14.497Z,86.07
2022-08-31T05:38:14.444Z,86.02
2022-08-31T05:39:14.407Z,86.02
2022-08-31T05:40:14.416Z,86.13
2022-08-31T05:41:14.344Z,85.22
2022-08-31T05:42:14.303Z,85.02
2022-08-31T05:43:14.306Z,85.31
2022-08-31T05:44:14.231Z,84.71
2022-08-31T05:45:14.185Z,85.31
2022-08-31T05:46:14.173Z,85.62
2022-08-31T05:47:14.105Z,85.02
2022-08-31T05:48:14.077Z,85.02
2022-08-31T05:49:14.140Z,84.97
2022-08-31T05:50:13.996Z,85.08
2022-08-31T05:51:13.958Z,85.28
2022-08-31T05:52:13.918Z,84.07
2022-08-31T05:53:13.921Z,84.97
2022-08-31T05:54:13.844Z,84.13
2022-08-31T05:55:13.817Z,84.74
2022-08-31T05:56:13.766Z,84.09
2022-08-31T05:57:13.735Z,83.51
2022-08-31T05:58:13.694Z,80.91
2022-08-31T05:59:13.652Z,77.51
2022-08-31T06:00:13.618Z,73.80
2022-08-31T06:01:13.591Z,71.42
2022-08-31T06:02:13.622Z,70.12
2022-08-31T06:03:13.505Z,68.59
2022-08-31T06:04:13.468Z,67.93
2022-08-31T06:05:13.451Z,69.59
2022-08-31T06:06:13.393Z,69.36
2022-08-31T06:07:13.366Z,71.23
2022-08-31T06:08:15.454Z,72.56
2022-08-31T06:09:13.280Z,72.63
2022-08-31T06:10:13.252Z,75.24
2022-08-31T06:11:13.209Z,76.04
2022-08-31T06:12:13.179Z,76.56
2022-08-31T06:13:13.147Z,78.13
2022-08-31T06:14:13.104Z,79.21
2022-08-31T06:15:13.064Z,79.06
2022-08-31T06:16:13.080Z,78.77
2022-08-31T06:17:13.021Z,79.27
2022-08-31T06:18:12.966Z,78.36
2022-08-31T06:19:12.925Z,78.25
2022-08-31T06:20:17.001Z,74.47
2022-08-31T06:21:12.845Z,73.06
2022-08-31T06:22:12.820Z,71.36
2022-08-31T06:23:12.770Z,69.43
2022-08-31T06:24:12.737Z,68.79
2022-08-31T06:25:12.708Z,67.83
2022-08-31T06:26:12.666Z,63.92
2022-08-31T06:27:12.625Z,64.31
2022-08-31T06:28:12.591Z,64.42
2022-08-31T06:29:12.551Z,64.61
2022-08-31T06:30:12.536Z,64.64
2022-08-31T06:31:12.503Z,65.47
2022-08-31T06:32:12.459Z,66.00
2022-08-31T06:33:12.456Z,66.53
2022-08-31T06:34:12.383Z,68.36
2022-08-31T06:35:13.062Z,66.60
2022-08-31T06:36:12.305Z,66.50
2022-08-31T06:37:18.649Z,64.25
2022-08-31T06:38:12.237Z,65.47
2022-08-31T06:39:12.197Z,65.34
2022-08-31T06:40:12.192Z,65.05
2022-08-31T06:41:12.126Z,64.91
2022-08-31T06:42:12.097Z,64.54
2022-08-31T06:43:12.079Z,63.49
2022-08-31T06:44:12.024Z,60.13
2022-08-31T06:45:12.000Z,59.08
2022-08-31T06:46:12.014Z,57.86
2022-08-31T06:47:11.918Z,59.08
2022-08-31T06:48:11.899Z,58.19
2022-08-31T06:49:11.851Z,58.29
2022-08-31T06:50:11.813Z,58.94
2022-08-31T06:51:11.779Z,59.38
2022-08-31T06:52:11.743Z,57.76
2022-08-31T06:53:11.816Z,58.54
2022-08-31T06:54:28.395Z,59.86
2022-08-31T06:55:11.645Z,59.74
2022-08-31T06:56:20.877Z,59.93
2022-08-31T06:57:11.584Z,60.69
2022-08-31T06:58:11.546Z,61.41
2022-08-31T06:59:11.521Z,62.18
2022-08-31T07:00:11.507Z,60.56
2022-08-31T07:01:11.499Z,59.70
2022-08-31T07:02:11.518Z,58.56
2022-08-31T07:03:11.434Z,59.41
2022-08-31T07:04:11.335Z,59.18
2022-08-31T07:05:15.611Z,59.31
2022-08-31T07:06:11.272Z,58.29
2022-08-31T07:07:11.259Z,58.69
2022-08-31T07:08:11.208Z,58.42
2022-08-31T07:09:11.171Z,59.91
2022-08-31T07:10:11.138Z,57.54
2022-08-31T07:11:11.111Z,58.64
2022-08-31T07:12:11.082Z,60.36
2022-08-31T07:13:11.118Z,60.33
2022-08-31T07:14:11.002Z,58.63
2022-08-31T07:15:10.994Z,57.02
2022-08-31T07:16:10.975Z,56.82
2022-08-31T07:17:10.935Z,55.93
2022-08-31T07:18:10.877Z,57.51
2022-08-31T07:19:10.838Z,56.92
2022-08-31T07:20:10.805Z,56.27
2022-08-31T07:21:10.772Z,55.65
2022-08-31T07:22:11.449Z,56.25
2022-08-31T07:23:10.721Z,57.46
2022-08-31T07:24:10.677Z,59.31
2022-08-31T07:25:10.637Z,61.05
2022-08-31T07:26:10.604Z,60.03
2022-08-31T07:27:10.574Z,60.16
2022-08-31T07:28:10.542Z,62.34
2022-08-31T07:29:10.517Z,64.85
2022-08-31T07:30:10.477Z,62.93
2022-08-31T07:31:10.596Z,61.38
2022-08-31T07:32:10.411Z,61.15
2022-08-31T07:33:10.376Z,59.93
2022-08-31T07:34:10.364Z,59.74
2022-08-31T07:35:10.314Z,61.98
2022-08-31T07:36:10.278Z,61.98
2022-08-31T07:37:10.245Z,63.30
2022-08-31T07:38:10.212Z,63.00
2022-08-31T07:39:10.179Z,62.01
2022-08-31T07:40:10.233Z,61.75
2022-08-31T07:41:10.113Z,61.01
2022-08-31T07:42:10.089Z,60.98
2022-08-31T07:43:10.048Z,60.91
2022-08-31T07:44:10.018Z,62.50
2022-08-31T07:45:10.191Z,62.93
2022-08-31T07:46:10.015Z,62.93
2022-08-31T07:47:09.916Z,64.72
2022-08-31T07:48:09.884Z,65.74
2022-08-31T07:49:09.850Z,64.31
2022-08-31T07:50:09.830Z,65.01
2022-08-31T07:51:13.396Z,65.44
2022-08-31T07:52:09.751Z,65.24
2022-08-31T07:53:09.718Z,66.14
2022-08-31T07:54:09.684Z,65.41
2022-08-31T07:55:09.649Z,64.54
2022-08-31T07:56:09.631Z,65.14
2022-08-31T07:57:09.583Z,66.57
2022-08-31T07:58:09.555Z,67.73
2022-08-31T07:59:11.087Z,65.94
2022-08-31T08:00:09.495Z,66.90
2022-08-31T08:01:09.459Z,67.30
2022-08-31T08:02:11.149Z,67.53
2022-08-31T08:03:09.428Z,68.90
2022-08-31T08:04:09.362Z,68.13
2022-08-31T08:05:09.314Z,68.43
2022-08-31T08:06:09.291Z,67.93
2022-08-31T08:07:09.252Z,69.06
2022-08-31T08:08:13.673Z,68.36
2022-08-31T08:09:25.116Z,68.66
2022-08-31T08:10:09.146Z,68.96
2022-08-31T08:11:09.112Z,68.83
2022-08-31T08:12:09.091Z,68.03
2022-08-31T08:13:09.046Z,68.06
2022-08-31T08:14:09.009Z,69.96
2022-08-31T08:15:08.975Z,69.99
2022-08-31T08:16:09.001Z,70.29
2022-08-31T08:17:08.906Z,70.09
2022-08-31T08:18:08.899Z,69.29
2022-08-31T08:19:08.840Z,69.09
2022-08-31T08:20:13.323Z,68.36
2022-08-31T08:21:08.769Z,68.23
2022-08-31T08:22:08.736Z,68.23
2022-08-31T08:23:08.702Z,67.47
2022-08-31T08:24:08.678Z,66.91
2022-08-31T08:25:08.634Z,63.53
2022-08-31T08:26:08.599Z,62.34
2022-08-31T08:27:08.688Z,63.07
2022-08-31T08:28:28.866Z,61.91
2022-08-31T08:29:08.495Z,60.93
2022-08-31T08:30:12.312Z,60.30
2022-08-31T08:31:08.452Z,61.10
2022-08-31T08:32:08.396Z,59.62
2022-08-31T08:33:08.360Z,58.03
2022-08-31T08:34:08.329Z,59.52
2022-08-31T08:35:08.293Z,59.03
2022-08-31T08:36:08.455Z,59.92
2022-08-31T08:37:08.231Z,59.22
2022-08-31T08:38:08.202Z,57.90
2022-08-31T08:39:08.164Z,59.88
2022-08-31T08:40:08.170Z,60.06
2022-08-31T08:41:08.102Z,61.08
2022-08-31T08:42:08.073Z,61.68
2022-08-31T08:43:08.031Z,61.15
2022-08-31T08:44:07.999Z,61.78
2022-08-31T08:45:07.972Z,61.62
2022-08-31T08:46:31.412Z,61.36
2022-08-31T08:47:07.903Z,60.24
2022-08-31T08:48:07.882Z,59.78
2022-08-31T08:49:07.837Z,60.00
2022-08-31T08:50:07.811Z,60.33
2022-08-31T08:51:07.775Z,61.25
2022-08-31T08:52:08.192Z,61.12
2022-08-31T08:53:07.715Z,61.82
2022-08-31T08:54:07.684Z,61.35
2022-08-31T08:55:07.644Z,61.12
2022-08-31T08:56:29.673Z,61.32
2022-08-31T08:57:07.579Z,60.46
2022-08-31T08:58:07.558Z,61.15
2022-08-31T08:59:11.494Z,61.98
2022-08-31T09:00:07.482Z,62.67
2022-08-31T09:01:07.496Z,61.65
2022-08-31T09:02:07.584Z,61.35
2022-08-31T09:03:07.387Z,60.88
2022-08-31T09:04:07.363Z,62.01
2022-08-31T09:05:07.319Z,63.43
2022-08-31T09:06:07.299Z,63.43
2022-08-31T09:07:07.256Z,61.71
2022-08-31T09:08:07.224Z,62.57
2022-08-31T09:09:07.188Z,61.38
2022-08-31T09:10:07.185Z,62.27
2022-08-31T09:11:07.122Z,61.41
2022-08-31T09:12:10.198Z,63.70
2022-08-31T09:13:07.059Z,63.56
2022-08-31T09:14:07.023Z,64.32
2022-08-31T09:15:06.991Z,62.07
2022-08-31T09:16:06.995Z,62.60
2022-08-31T09:17:06.924Z,61.38
2022-08-31T09:18:06.893Z,62.15
2022-08-31T09:19:06.875Z,60.99
2022-08-31T09:20:06.833Z,59.32
2022-08-31T09:21:06.792Z,58.01
2022-08-31T09:22:06.768Z,57.09
2022-08-31T09:23:06.730Z,57.90
2022-08-31T09:24:06.699Z,58.11
2022-08-31T09:25:06.667Z,58.18
2022-08-31T09:26:08.577Z,56.96
2022-08-31T09:27:06.609Z,56.40
2022-08-31T09:28:06.565Z,57.90
2022-08-31T09:29:06.546Z,57.84
2022-08-31T09:30:06.507Z,57.67
2022-08-31T09:31:06.547Z,57.97
2022-08-31T09:32:06.589Z,58.33
2022-08-31T09:33:06.418Z,57.41
2022-08-31T09:34:06.376Z,57.65
2022-08-31T09:35:06.347Z,55.26
2022-08-31T09:36:06.315Z,55.15
2022-08-31T09:37:06.289Z,55.26
2022-08-31T09:38:06.256Z,56.17
2022-08-31T09:39:06.232Z,55.35
2022-08-31T09:40:07.504Z,55.13
2022-08-31T09:41:06.161Z,57.34
2022-08-31T09:42:06.142Z,57.54
2022-08-31T09:43:06.099Z,59.99
2022-08-31T09:44:06.084Z,58.05
2022-08-31T09:45:06.156Z,57.47
2022-08-31T09:46:06.077Z,56.04
2022-08-31T09:47:05.981Z,56.04
2022-08-31T09:48:05.947Z,56.34
2022-08-31T09:49:05.937Z,55.18
2022-08-31T09:50:05.906Z,56.10
2022-08-31T09:51:05.857Z,58.37
2022-08-31T09:52:05.826Z,59.62
2022-08-31T09:53:05.795Z,59.72
2022-08-31T09:54:05.764Z,58.30
2022-08-31T09:55:05.749Z,58.15
2022-08-31T09:56:05.705Z,56.37
2022-08-31T09:57:05.674Z,55.87
2022-08-31T09:58:05.644Z,57.09
2022-08-31T09:59:05.614Z,57.41
2022-08-31T10:00:05.584Z,57.71
2022-08-31T10:01:05.600Z,57.81
2022-08-31T10:02:05.993Z,59.76
2022-08-31T10:03:06.673Z,57.65
2022-08-31T10:04:05.461Z,55.65
2022-08-31T10:05:05.473Z,55.62
2022-08-31T10:06:05.399Z,55.40
2022-08-31T10:07:05.382Z,56.92
2022-08-31T10:08:05.342Z,52.06
2022-08-31T10:09:05.318Z,54.43
2022-08-31T10:10:05.274Z,53.08
2022-08-31T10:11:05.244Z,53.39
2022-08-31T10:12:05.220Z,53.39
2022-08-31T10:13:05.185Z,53.15
2022-08-31T10:14:05.170Z,56.80
2022-08-31T10:15:05.137Z,53.22
2022-08-31T10:16:05.196Z,53.34
2022-08-31T10:17:05.063Z,53.32
2022-08-31T10:18:05.639Z,53.81
2022-08-31T10:19:05.011Z,52.21
2022-08-31T10:20:04.969Z,53.15
2022-08-31T10:21:04.966Z,53.47
2022-08-31T10:22:04.930Z,53.69
2022-08-31T10:23:04.880Z,55.57
2022-08-31T10:24:04.849Z,52.98
2022-08-31T10:25:04.820Z,53.47
2022-08-31T10:26:04.786Z,53.00
2022-08-31T10:27:04.775Z,54.48
2022-08-31T10:28:04.729Z,55.12
2022-08-31T10:29:04.702Z,53.61
2022-08-31T10:30:04.667Z,52.23
2022-08-31T10:31:04.676Z,52.78
2022-08-31T10:32:04.607Z,54.02
2022-08-31T10:33:04.591Z,54.78
2022-08-31T10:34:04.550Z,53.79
2022-08-31T10:35:04.517Z,55.69
2022-08-31T10:36:04.489Z,54.21
2022-08-31T10:37:04.457Z,54.02
2022-08-31T10:38:04.424Z,53.45
2022-08-31T10:39:04.405Z,53.85
2022-08-31T10:40:04.373Z,53.15
2022-08-31T10:41:04.374Z,56.17
2022-08-31T10:42:04.302Z,54.17
2022-08-31T10:43:04.271Z,54.49
2022-08-31T10:44:04.239Z,56.27
2022-08-31T10:45:04.254Z,54.17
2022-08-31T10:46:04.236Z,54.29
2022-08-31T10:47:04.147Z,57.26
2022-08-31T10:48:04.116Z,55.30
2022-08-31T10:49:04.099Z,56.85
2022-08-31T10:50:04.053Z,59.59
2022-08-31T10:51:04.039Z,57.14
2022-08-31T10:52:03.996Z,59.35
2022-08-31T10:53:03.960Z,59.32
2022-08-31T10:54:03.928Z,57.90
2022-08-31T10:55:03.900Z,57.31
2022-08-31T10:56:03.864Z,57.90
2022-08-31T10:57:03.843Z,55.93
2022-08-31T10:58:03.801Z,56.74
2022-08-31T10:59:03.772Z,57.57
2022-08-31T11:00:03.737Z,58.12
2022-08-31T11:01:03.755Z,58.51
2022-08-31T11:02:03.687Z,58.81
2022-08-31T11:03:03.647Z,58.61
2022-08-31T11:04:03.645Z,59.74
2022-08-31T11:05:03.580Z,59.23
2022-08-31T11:06:03.548Z,60.56
2022-08-31T11:07:03.516Z,60.26
2022-08-31T11:08:03.493Z,60.33
2022-08-31T11:09:03.463Z,60.53
2022-08-31T11:10:03.420Z,60.43
2022-08-31T11:11:03.390Z,61.42
2022-08-31T11:12:03.356Z,60.72
2022-08-31T11:13:03.354Z,60.99
2022-08-31T11:14:03.301Z,59.01
2022-08-31T11:15:03.262Z,60.60
2022-08-31T11:16:03.251Z,61.29
2022-08-31T11:17:03.192Z,60.89
2022-08-31T11:18:03.162Z,60.37
2022-08-31T11:19:07.115Z,58.98
2022-08-31T11:20:03.104Z,59.78
2022-08-31T11:21:03.071Z,59.38
2022-08-31T11:22:03.038Z,59.41
2022-08-31T11:23:02.999Z,60.00
2022-08-31T11:24:02.972Z,60.10
2022-08-31T11:25:02.935Z,59.67
2022-08-31T11:26:02.901Z,60.23
2022-08-31T11:27:02.871Z,59.91
2022-08-31T11:28:02.849Z,59.91
2022-08-31T11:29:02.804Z,60.33
2022-08-31T11:30:02.775Z,60.23
2022-08-31T11:31:02.794Z,60.03
2022-08-31T11:32:02.701Z,60.23
2022-08-31T11:33:02.678Z,60.99
2022-08-31T11:34:17.751Z,59.78
2022-08-31T11:35:02.603Z,59.67
2022-08-31T11:36:06.303Z,60.27
2022-08-31T11:37:02.567Z,59.51
2022-08-31T11:38:02.512Z,61.32
2022-08-31T11:39:02.472Z,60.23
2022-08-31T11:40:02.528Z,60.96
2022-08-31T11:41:02.416Z,60.96
2022-08-31T11:42:02.371Z,61.58
2022-08-31T11:43:02.338Z,61.15
2022-08-31T11:44:02.304Z,61.25
2022-08-31T11:45:02.272Z,61.35
2022-08-31T11:46:02.280Z,61.62
2022-08-31T11:47:02.208Z,61.25
2022-08-31T11:48:02.172Z,61.35
2022-08-31T11:49:02.142Z,61.85
2022-08-31T11:50:02.119Z,62.34
2022-08-31T11:51:02.073Z,62.02
2022-08-31T11:52:02.050Z,60.89
2022-08-31T11:53:02.011Z,60.20
2022-08-31T11:54:02.765Z,59.80
2022-08-31T11:55:01.946Z,59.93
2022-08-31T11:56:01.909Z,59.83
2022-08-31T11:57:01.876Z,60.70
2022-08-31T11:58:01.859Z,59.61
2022-08-31T11:59:01.810Z,60.00
2022-08-31T12:00:01.777Z,60.70
2022-08-31T12:01:01.746Z,61.02
2022-08-31T12:02:01.756Z,60.60
2022-08-31T12:03:01.678Z,60.10
2022-08-31T12:04:01.655Z,59.91
2022-08-31T12:05:01.682Z,60.30
2022-08-31T12:06:01.578Z,60.03
2022-08-31T12:07:01.560Z,59.14
2022-08-31T12:08:01.508Z,60.33
2022-08-31T12:09:01.492Z,60.03
2022-08-31T12:10:01.443Z,59.93
2022-08-31T12:11:01.412Z,59.93
2022-08-31T12:12:01.378Z,61.29
2022-08-31T12:13:01.342Z,60.00
2022-08-31T12:14:01.315Z,58.91
2022-08-31T12:15:01.287Z,59.63
2022-08-31T12:16:01.434Z,60.43
2022-08-31T12:17:01.208Z,59.91
2022-08-31T12:18:01.174Z,61.10
2022-08-31T12:19:01.143Z,59.78
2022-08-31T12:20:02.124Z,59.65
2022-08-31T12:21:01.089Z,59.35
2022-08-31T12:22:01.042Z,59.67
2022-08-31T12:23:01.014Z,60.17
2022-08-31T12:24:00.975Z,59.91
2022-08-31T12:25:00.943Z,59.67
2022-08-31T12:26:00.909Z,59.70
2022-08-31T12:27:00.915Z,59.91
2022-08-31T12:28:00.842Z,60.20
2022-08-31T12:29:00.811Z,60.63
2022-08-31T12:30:00.808Z,61.91
2022-08-31T12:31:00.812Z,61.02
2022-08-31T12:32:00.711Z,60.96
2022-08-31T12:33:00.688Z,61.38
2022-08-31T12:34:00.644Z,61.58
2022-08-31T12:35:00.611Z,62.94
2022-08-31T12:36:00.577Z,60.96
2022-08-31T12:37:00.547Z,61.55
2022-08-31T12:38:00.542Z,61.35
2022-08-31T12:39:00.490Z,60.96
2022-08-31T12:40:00.473Z,61.22
2022-08-31T12:41:00.412Z,62.21
2022-08-31T12:42:00.376Z,61.91
2022-08-31T12:43:00.343Z,62.58
2022-08-31T12:44:00.321Z,60.40
2022-08-31T12:45:00.275Z,59.88
2022-08-31T12:46:00.302Z,61.86
2022-08-31T12:47:00.211Z,60.86
2022-08-31T12:48:00.178Z,60.10
2022-08-31T12:49:00.145Z,59.74
2022-08-31T12:50:00.148Z,61.12
2022-08-31T12:51:00.092Z,60.96
2022-08-31T12:52:00.071Z,61.55